sensor_id;sensor_type;location;lat;lon;timestamp;temperature;humidity
13436;DHT22;6790;49.520;8.504;2024-01-30T00:01:55;0.40;99.90
13436;DHT22;6790;49.520;8.504;2024-01-30T00:04:21;0.40;99.90
13436;DHT22;6790;49.520;8.504;2024-01-30T00:06:47;0.40;99.90
13436;DHT22;6790;49.520;8.504;2024-01-30T00:09:13;0.40;99.90
13436;DHT22;6790;49.520;8.504;2024-01-30T00:11:39;0.40;99.90
13436;DHT22;6790;49.520;8.504;2024-01-30T00:14:04;0.40;99.90
13436;DHT22;6790;49.520;8.504;2024-01-30T00:16:30;0.40;99.90
13436;DHT22;6790;49.520;8.504;2024-01-30T00:18:56;0.40;99.90
13436;DHT22;6790;49.520;8.504;2024-01-30T00:21:23;0.40;99.90
13436;DHT22;6790;49.520;8.504;2024-01-30T00:23:49;0.30;99.90
13436;DHT22;6790;49.520;8.504;2024-01-30T00:26:15;0.30;99.90
13436;DHT22;6790;49.520;8.504;2024-01-30T00:28:41;0.30;99.90
13436;DHT22;6790;49.520;8.504;2024-01-30T00:31:07;0.20;99.90
13436;DHT22;6790;49.520;8.504;2024-01-30T00:33:33;0.20;99.90
13436;DHT22;6790;49.520;8.504;2024-01-30T00:35:59;0.20;99.90
13436;DHT22;6790;49.520;8.504;2024-01-30T00:38:24;0.20;99.90
13436;DHT22;6790;49.520;8.504;2024-01-30T00:40:50;0.20;99.90
13436;DHT22;6790;49.520;8.504;2024-01-30T00:43:16;0.30;99.90
13436;DHT22;6790;49.520;8.504;2024-01-30T00:45:43;0.30;99.90
13436;DHT22;6790;49.520;8.504;2024-01-30T00:48:09;0.30;99.90
13436;DHT22;6790;49.520;8.504;2024-01-30T00:50:35;0.20;99.90
13436;DHT22;6790;49.520;8.504;2024-01-30T00:53:00;0.30;99.90
13436;DHT22;6790;49.520;8.504;2024-01-30T00:55:26;0.30;99.90
13436;DHT22;6790;49.520;8.504;2024-01-30T00:57:52;0.20;99.90
13436;DHT22;6790;49.520;8.504;2024-01-30T01:00:18;0.30;99.90
13436;DHT22;6790;49.520;8.504;2024-01-30T01:02:44;0.30;99.90
13436;DHT22;6790;49.520;8.504;2024-01-30T01:05:10;0.30;99.90
13436;DHT22;6790;49.520;8.504;2024-01-30T01:07:35;0.30;99.90
13436;DHT22;6790;49.520;8.504;2024-01-30T01:10:01;0.30;99.90
13436;DHT22;6790;49.520;8.504;2024-01-30T01:12:28;0.30;99.90
13436;DHT22;6790;49.520;8.504;2024-01-30T01:14:53;0.40;99.90
13436;DHT22;6790;49.520;8.504;2024-01-30T01:17:19;0.50;99.90
13436;DHT22;6790;49.520;8.504;2024-01-30T01:19:45;0.40;99.90
13436;DHT22;6790;49.520;8.504;2024-01-30T01:22:11;0.40;99.90
13436;DHT22;6790;49.520;8.504;2024-01-30T01:24:37;0.50;99.90
13436;DHT22;6790;49.520;8.504;2024-01-30T01:27:03;0.40;99.90
13436;DHT22;6790;49.520;8.504;2024-01-30T01:29:28;0.50;99.90
13436;DHT22;6790;49.520;8.504;2024-01-30T01:31:55;0.50;99.90
13436;DHT22;6790;49.520;8.504;2024-01-30T01:34:21;0.40;99.90
13436;DHT22;6790;49.520;8.504;2024-01-30T01:36:47;0.50;99.90
13436;DHT22;6790;49.520;8.504;2024-01-30T01:39:13;0.50;99.90
13436;DHT22;6790;49.520;8.504;2024-01-30T01:41:39;0.50;99.90
13436;DHT22;6790;49.520;8.504;2024-01-30T01:44:04;0.40;99.90
13436;DHT22;6790;49.520;8.504;2024-01-30T01:46:33;0.40;99.90
13436;DHT22;6790;49.520;8.504;2024-01-30T01:49:02;0.40;99.90
13436;DHT22;6790;49.520;8.504;2024-01-30T01:51:29;0.50;99.90
13436;DHT22;6790;49.520;8.504;2024-01-30T01:53:57;0.50;99.90
13436;DHT22;6790;49.520;8.504;2024-01-30T01:56:24;0.50;99.90
13436;DHT22;6790;49.520;8.504;2024-01-30T01:58:51;0.50;99.90
13436;DHT22;6790;49.520;8.504;2024-01-30T02:01:20;0.40;99.90
13436;DHT22;6790;49.520;8.504;2024-01-30T02:03:47;0.40;99.90
13436;DHT22;6790;49.520;8.504;2024-01-30T02:06:16;0.30;99.90
13436;DHT22;6790;49.520;8.504;2024-01-30T02:08:42;0.30;99.90
13436;DHT22;6790;49.520;8.504;2024-01-30T02:11:08;0.30;99.90
13436;DHT22;6790;49.520;8.504;2024-01-30T02:13:35;0.30;99.90
13436;DHT22;6790;49.520;8.504;2024-01-30T02:16:01;0.30;99.90
13436;DHT22;6790;49.520;8.504;2024-01-30T02:18:27;0.20;99.90
13436;DHT22;6790;49.520;8.504;2024-01-30T02:20:54;0.20;99.90
13436;DHT22;6790;49.520;8.504;2024-01-30T02:23:24;0.20;99.90
13436;DHT22;6790;49.520;8.504;2024-01-30T02:25:52;0.20;99.90
13436;DHT22;6790;49.520;8.504;2024-01-30T02:28:19;0.10;99.90
13436;DHT22;6790;49.520;8.504;2024-01-30T02:30:46;0.10;99.90
13436;DHT22;6790;49.520;8.504;2024-01-30T02:33:12;0.20;99.90
13436;DHT22;6790;49.520;8.504;2024-01-30T02:35:38;0.20;99.90
13436;DHT22;6790;49.520;8.504;2024-01-30T02:38:04;0.10;99.90
13436;DHT22;6790;49.520;8.504;2024-01-30T02:40:31;0.10;99.90
13436;DHT22;6790;49.520;8.504;2024-01-30T02:43:00;0.10;99.90
13436;DHT22;6790;49.520;8.504;2024-01-30T02:45:27;0.10;99.90
13436;DHT22;6790;49.520;8.504;2024-01-30T02:47:53;0.00;99.90
13436;DHT22;6790;49.520;8.504;2024-01-30T02:50:18;0.10;99.90
13436;DHT22;6790;49.520;8.504;2024-01-30T02:52:44;0.00;99.90
13436;DHT22;6790;49.520;8.504;2024-01-30T02:55:10;0.00;99.90
13436;DHT22;6790;49.520;8.504;2024-01-30T02:57:36;-0.10;99.90
13436;DHT22;6790;49.520;8.504;2024-01-30T03:00:02;-0.10;99.90
13436;DHT22;6790;49.520;8.504;2024-01-30T03:02:29;-0.10;99.90
13436;DHT22;6790;49.520;8.504;2024-01-30T03:04:55;-0.10;99.90
13436;DHT22;6790;49.520;8.504;2024-01-30T03:07:20;-0.20;99.90
13436;DHT22;6790;49.520;8.504;2024-01-30T03:09:46;-0.20;99.90
13436;DHT22;6790;49.520;8.504;2024-01-30T03:12:12;-0.20;99.90
13436;DHT22;6790;49.520;8.504;2024-01-30T03:14:38;-0.20;99.90
13436;DHT22;6790;49.520;8.504;2024-01-30T03:17:03;-0.20;99.90
13436;DHT22;6790;49.520;8.504;2024-01-30T03:19:29;-0.20;99.90
13436;DHT22;6790;49.520;8.504;2024-01-30T03:21:54;-0.20;99.90
13436;DHT22;6790;49.520;8.504;2024-01-30T03:24:20;-0.30;99.90
13436;DHT22;6790;49.520;8.504;2024-01-30T03:26:46;-0.30;99.90
13436;DHT22;6790;49.520;8.504;2024-01-30T03:29:12;-0.30;99.90
13436;DHT22;6790;49.520;8.504;2024-01-30T03:31:38;-0.40;99.90
13436;DHT22;6790;49.520;8.504;2024-01-30T03:34:04;-0.40;99.90
13436;DHT22;6790;49.520;8.504;2024-01-30T03:36:30;-0.40;99.90
13436;DHT22;6790;49.520;8.504;2024-01-30T03:38:58;-0.40;99.90
13436;DHT22;6790;49.520;8.504;2024-01-30T03:41:24;-0.40;99.90
13436;DHT22;6790;49.520;8.504;2024-01-30T03:43:50;-0.40;99.90
13436;DHT22;6790;49.520;8.504;2024-01-30T03:46:16;-0.40;99.90
13436;DHT22;6790;49.520;8.504;2024-01-30T03:48:42;-0.40;99.90
13436;DHT22;6790;49.520;8.504;2024-01-30T03:51:08;-0.50;99.90
13436;DHT22;6790;49.520;8.504;2024-01-30T03:53:34;-0.40;99.90
13436;DHT22;6790;49.520;8.504;2024-01-30T03:55:59;-0.50;99.90
13436;DHT22;6790;49.520;8.504;2024-01-30T03:58:25;-0.50;99.90
13436;DHT22;6790;49.520;8.504;2024-01-30T04:00:51;-0.60;99.90
13436;DHT22;6790;49.520;8.504;2024-01-30T04:03:17;-0.60;99.90
13436;DHT22;6790;49.520;8.504;2024-01-30T04:05:43;-0.60;99.90
13436;DHT22;6790;49.520;8.504;2024-01-30T04:08:09;-0.40;99.90
13436;DHT22;6790;49.520;8.504;2024-01-30T04:10:35;-0.40;99.90
13436;DHT22;6790;49.520;8.504;2024-01-30T04:13:00;-0.40;99.90
13436;DHT22;6790;49.520;8.504;2024-01-30T04:15:26;-0.50;99.90
13436;DHT22;6790;49.520;8.504;2024-01-30T04:17:53;-0.60;99.90
13436;DHT22;6790;49.520;8.504;2024-01-30T04:20:18;-0.50;99.90
13436;DHT22;6790;49.520;8.504;2024-01-30T04:22:45;-0.50;99.90
13436;DHT22;6790;49.520;8.504;2024-01-30T04:25:14;-0.50;99.90
13436;DHT22;6790;49.520;8.504;2024-01-30T04:27:40;-0.50;99.90
13436;DHT22;6790;49.520;8.504;2024-01-30T04:30:06;-0.40;99.90
13436;DHT22;6790;49.520;8.504;2024-01-30T04:32:32;-0.50;99.90
13436;DHT22;6790;49.520;8.504;2024-01-30T04:34:58;-0.40;99.90
13436;DHT22;6790;49.520;8.504;2024-01-30T04:37:24;-0.50;99.90
13436;DHT22;6790;49.520;8.504;2024-01-30T04:39:50;-0.50;99.90
13436;DHT22;6790;49.520;8.504;2024-01-30T04:42:16;-0.50;99.90
13436;DHT22;6790;49.520;8.504;2024-01-30T04:44:42;-0.40;99.90
13436;DHT22;6790;49.520;8.504;2024-01-30T04:47:08;-0.40;99.90
13436;DHT22;6790;49.520;8.504;2024-01-30T04:49:35;-0.50;99.90
13436;DHT22;6790;49.520;8.504;2024-01-30T04:52:01;-0.50;99.90
13436;DHT22;6790;49.520;8.504;2024-01-30T04:54:26;-0.50;99.90
13436;DHT22;6790;49.520;8.504;2024-01-30T04:56:52;-0.50;99.90
13436;DHT22;6790;49.520;8.504;2024-01-30T04:59:18;-0.50;99.90
13436;DHT22;6790;49.520;8.504;2024-01-30T05:01:44;-0.40;99.90
13436;DHT22;6790;49.520;8.504;2024-01-30T05:04:10;-0.40;99.90
13436;DHT22;6790;49.520;8.504;2024-01-30T05:06:36;-0.40;99.90
13436;DHT22;6790;49.520;8.504;2024-01-30T05:09:02;-0.20;99.90
13436;DHT22;6790;49.520;8.504;2024-01-30T05:11:29;-0.20;99.90
13436;DHT22;6790;49.520;8.504;2024-01-30T05:13:55;-0.10;99.90
13436;DHT22;6790;49.520;8.504;2024-01-30T05:16:21;-0.30;99.90
13436;DHT22;6790;49.520;8.504;2024-01-30T05:18:47;-0.30;99.90
13436;DHT22;6790;49.520;8.504;2024-01-30T05:21:12;-0.10;99.90
13436;DHT22;6790;49.520;8.504;2024-01-30T05:23:38;-0.10;99.90
13436;DHT22;6790;49.520;8.504;2024-01-30T05:26:04;-0.10;99.90
13436;DHT22;6790;49.520;8.504;2024-01-30T05:28:30;0.00;99.90
13436;DHT22;6790;49.520;8.504;2024-01-30T05:30:56;0.10;99.90
13436;DHT22;6790;49.520;8.504;2024-01-30T05:33:22;0.10;99.90
13436;DHT22;6790;49.520;8.504;2024-01-30T05:35:47;0.00;99.90
13436;DHT22;6790;49.520;8.504;2024-01-30T05:38:15;0.20;99.90
13436;DHT22;6790;49.520;8.504;2024-01-30T05:40:41;0.10;99.90
13436;DHT22;6790;49.520;8.504;2024-01-30T05:43:07;0.30;99.90
13436;DHT22;6790;49.520;8.504;2024-01-30T05:45:33;0.50;99.90
13436;DHT22;6790;49.520;8.504;2024-01-30T05:48:00;0.50;99.90
13436;DHT22;6790;49.520;8.504;2024-01-30T05:50:26;0.50;99.90
13436;DHT22;6790;49.520;8.504;2024-01-30T05:52:52;0.50;99.90
13436;DHT22;6790;49.520;8.504;2024-01-30T05:55:18;0.50;99.90
13436;DHT22;6790;49.520;8.504;2024-01-30T05:57:44;0.40;99.90
13436;DHT22;6790;49.520;8.504;2024-01-30T06:00:10;0.60;99.90
13436;DHT22;6790;49.520;8.504;2024-01-30T06:02:36;0.60;99.90
13436;DHT22;6790;49.520;8.504;2024-01-30T06:05:02;0.80;99.90
13436;DHT22;6790;49.520;8.504;2024-01-30T06:07:28;0.80;99.90
13436;DHT22;6790;49.520;8.504;2024-01-30T06:09:53;1.00;99.90
13436;DHT22;6790;49.520;8.504;2024-01-30T06:12:19;0.90;99.90
13436;DHT22;6790;49.520;8.504;2024-01-30T06:14:45;0.90;99.90
13436;DHT22;6790;49.520;8.504;2024-01-30T06:17:10;1.00;99.90
13436;DHT22;6790;49.520;8.504;2024-01-30T06:19:38;0.90;99.90
13436;DHT22;6790;49.520;8.504;2024-01-30T06:22:04;0.80;99.90
13436;DHT22;6790;49.520;8.504;2024-01-30T06:24:30;0.80;99.90
13436;DHT22;6790;49.520;8.504;2024-01-30T06:26:56;0.80;99.90
13436;DHT22;6790;49.520;8.504;2024-01-30T06:29:21;0.70;99.90
13436;DHT22;6790;49.520;8.504;2024-01-30T06:31:47;0.80;99.90
13436;DHT22;6790;49.520;8.504;2024-01-30T06:34:13;1.00;99.90
13436;DHT22;6790;49.520;8.504;2024-01-30T06:36:38;1.10;99.90
13436;DHT22;6790;49.520;8.504;2024-01-30T06:39:04;1.10;99.90
13436;DHT22;6790;49.520;8.504;2024-01-30T06:41:31;1.20;99.90
13436;DHT22;6790;49.520;8.504;2024-01-30T06:43:56;1.30;99.90
13436;DHT22;6790;49.520;8.504;2024-01-30T06:46:22;1.30;99.90
13436;DHT22;6790;49.520;8.504;2024-01-30T06:48:48;1.20;99.90
13436;DHT22;6790;49.520;8.504;2024-01-30T06:51:14;1.50;99.90
13436;DHT22;6790;49.520;8.504;2024-01-30T06:53:39;1.50;99.90
13436;DHT22;6790;49.520;8.504;2024-01-30T06:56:05;1.40;99.90
13436;DHT22;6790;49.520;8.504;2024-01-30T06:58:31;1.40;99.90
13436;DHT22;6790;49.520;8.504;2024-01-30T07:00:57;1.50;99.90
13436;DHT22;6790;49.520;8.504;2024-01-30T07:03:23;1.60;99.90
13436;DHT22;6790;49.520;8.504;2024-01-30T07:05:49;1.40;99.90
13436;DHT22;6790;49.520;8.504;2024-01-30T07:08:16;1.50;99.90
13436;DHT22;6790;49.520;8.504;2024-01-30T07:10:46;1.60;99.90
13436;DHT22;6790;49.520;8.504;2024-01-30T07:13:13;1.50;99.90
13436;DHT22;6790;49.520;8.504;2024-01-30T07:15:42;1.50;99.90
13436;DHT22;6790;49.520;8.504;2024-01-30T07:18:07;1.50;99.90
13436;DHT22;6790;49.520;8.504;2024-01-30T07:20:35;1.50;99.90
13436;DHT22;6790;49.520;8.504;2024-01-30T07:23:00;1.40;99.90
13436;DHT22;6790;49.520;8.504;2024-01-30T07:25:26;1.50;99.90
13436;DHT22;6790;49.520;8.504;2024-01-30T07:27:56;1.60;99.90
13436;DHT22;6790;49.520;8.504;2024-01-30T07:30:21;1.60;99.90
13436;DHT22;6790;49.520;8.504;2024-01-30T07:32:48;1.60;99.90
13436;DHT22;6790;49.520;8.504;2024-01-30T07:35:14;1.80;99.90
13436;DHT22;6790;49.520;8.504;2024-01-30T07:37:40;2.00;99.90
13436;DHT22;6790;49.520;8.504;2024-01-30T07:40:07;2.10;99.90
13436;DHT22;6790;49.520;8.504;2024-01-30T07:42:33;2.30;99.90
13436;DHT22;6790;49.520;8.504;2024-01-30T07:45:00;2.20;99.90
13436;DHT22;6790;49.520;8.504;2024-01-30T07:47:26;2.30;99.90
13436;DHT22;6790;49.520;8.504;2024-01-30T07:49:52;2.50;99.90
13436;DHT22;6790;49.520;8.504;2024-01-30T07:52:18;2.80;99.90
13436;DHT22;6790;49.520;8.504;2024-01-30T07:54:50;2.80;99.90
13436;DHT22;6790;49.520;8.504;2024-01-30T08:01:29;2.80;99.90
13436;DHT22;6790;49.520;8.504;2024-01-30T08:03:54;2.90;99.90
13436;DHT22;6790;49.520;8.504;2024-01-30T08:06:20;3.00;99.90
13436;DHT22;6790;49.520;8.504;2024-01-30T08:08:46;3.00;99.90
13436;DHT22;6790;49.520;8.504;2024-01-30T08:11:12;3.20;99.90
13436;DHT22;6790;49.520;8.504;2024-01-30T08:13:38;3.30;99.90
13436;DHT22;6790;49.520;8.504;2024-01-30T08:16:04;3.40;99.90
13436;DHT22;6790;49.520;8.504;2024-01-30T08:18:30;3.50;99.90
13436;DHT22;6790;49.520;8.504;2024-01-30T08:20:55;3.70;99.90
13436;DHT22;6790;49.520;8.504;2024-01-30T08:23:21;3.90;99.90
13436;DHT22;6790;49.520;8.504;2024-01-30T08:25:47;4.00;99.90
13436;DHT22;6790;49.520;8.504;2024-01-30T08:28:12;4.10;99.90
13436;DHT22;6790;49.520;8.504;2024-01-30T08:30:38;4.20;99.90
13436;DHT22;6790;49.520;8.504;2024-01-30T08:33:05;4.30;99.90
13436;DHT22;6790;49.520;8.504;2024-01-30T08:35:31;4.40;99.90
13436;DHT22;6790;49.520;8.504;2024-01-30T08:37:59;4.60;99.90
13436;DHT22;6790;49.520;8.504;2024-01-30T08:40:25;4.60;99.90
13436;DHT22;6790;49.520;8.504;2024-01-30T08:42:51;4.70;99.90
13436;DHT22;6790;49.520;8.504;2024-01-30T08:45:17;4.70;99.90
13436;DHT22;6790;49.520;8.504;2024-01-30T08:47:42;4.80;99.90
13436;DHT22;6790;49.520;8.504;2024-01-30T08:50:08;4.90;99.90
13436;DHT22;6790;49.520;8.504;2024-01-30T08:52:34;4.90;99.90
13436;DHT22;6790;49.520;8.504;2024-01-30T08:55:00;5.00;99.90
13436;DHT22;6790;49.520;8.504;2024-01-30T08:57:25;5.00;99.90
13436;DHT22;6790;49.520;8.504;2024-01-30T08:59:54;5.10;99.90
13436;DHT22;6790;49.520;8.504;2024-01-30T09:02:20;5.10;99.90
13436;DHT22;6790;49.520;8.504;2024-01-30T09:04:46;5.20;99.90
13436;DHT22;6790;49.520;8.504;2024-01-30T09:07:12;5.20;99.90
13436;DHT22;6790;49.520;8.504;2024-01-30T09:09:39;5.20;99.90
13436;DHT22;6790;49.520;8.504;2024-01-30T09:12:06;5.30;99.90
13436;DHT22;6790;49.520;8.504;2024-01-30T09:14:35;5.30;99.90
13436;DHT22;6790;49.520;8.504;2024-01-30T09:17:01;5.40;99.90
13436;DHT22;6790;49.520;8.504;2024-01-30T09:19:28;5.40;99.90
13436;DHT22;6790;49.520;8.504;2024-01-30T09:21:54;5.50;99.90
13436;DHT22;6790;49.520;8.504;2024-01-30T09:24:20;5.50;99.90
13436;DHT22;6790;49.520;8.504;2024-01-30T09:26:45;5.60;99.90
13436;DHT22;6790;49.520;8.504;2024-01-30T09:29:11;5.60;99.90
13436;DHT22;6790;49.520;8.504;2024-01-30T09:31:36;5.70;99.90
13436;DHT22;6790;49.520;8.504;2024-01-30T09:34:03;5.80;99.90
13436;DHT22;6790;49.520;8.504;2024-01-30T09:36:28;5.80;99.90
13436;DHT22;6790;49.520;8.504;2024-01-30T09:38:54;5.90;99.90
13436;DHT22;6790;49.520;8.504;2024-01-30T09:41:20;6.00;99.90
13436;DHT22;6790;49.520;8.504;2024-01-30T09:43:50;6.00;99.90
13436;DHT22;6790;49.520;8.504;2024-01-30T09:46:17;6.10;99.90
13436;DHT22;6790;49.520;8.504;2024-01-30T09:48:48;6.20;99.90
13436;DHT22;6790;49.520;8.504;2024-01-30T09:51:15;6.30;99.90
13436;DHT22;6790;49.520;8.504;2024-01-30T09:53:43;6.40;99.90
13436;DHT22;6790;49.520;8.504;2024-01-30T09:56:12;6.50;99.90
13436;DHT22;6790;49.520;8.504;2024-01-30T09:58:38;6.50;99.90
13436;DHT22;6790;49.520;8.504;2024-01-30T10:01:05;6.60;99.90
13436;DHT22;6790;49.520;8.504;2024-01-30T10:03:31;6.60;99.90
13436;DHT22;6790;49.520;8.504;2024-01-30T10:05:56;6.70;99.90
13436;DHT22;6790;49.520;8.504;2024-01-30T10:08:22;6.60;99.90
13436;DHT22;6790;49.520;8.504;2024-01-30T10:10:49;6.70;99.90
13436;DHT22;6790;49.520;8.504;2024-01-30T10:13:15;6.80;99.90
13436;DHT22;6790;49.520;8.504;2024-01-30T10:15:41;6.80;99.90
13436;DHT22;6790;49.520;8.504;2024-01-30T10:18:08;6.90;99.90
13436;DHT22;6790;49.520;8.504;2024-01-30T10:20:35;7.00;99.90
13436;DHT22;6790;49.520;8.504;2024-01-30T10:23:01;7.10;99.90
13436;DHT22;6790;49.520;8.504;2024-01-30T10:25:27;7.00;99.90
13436;DHT22;6790;49.520;8.504;2024-01-30T10:27:56;7.10;99.90
13436;DHT22;6790;49.520;8.504;2024-01-30T10:30:22;7.20;99.90
13436;DHT22;6790;49.520;8.504;2024-01-30T10:32:48;7.30;99.90
13436;DHT22;6790;49.520;8.504;2024-01-30T10:35:15;7.30;99.90
13436;DHT22;6790;49.520;8.504;2024-01-30T10:37:43;7.40;99.90
13436;DHT22;6790;49.520;8.504;2024-01-30T10:40:12;7.40;99.90
13436;DHT22;6790;49.520;8.504;2024-01-30T10:42:42;7.40;99.90
13436;DHT22;6790;49.520;8.504;2024-01-30T10:45:14;7.40;99.90
13436;DHT22;6790;49.520;8.504;2024-01-30T10:47:48;7.40;99.90
13436;DHT22;6790;49.520;8.504;2024-01-30T10:50:15;7.40;99.90
13436;DHT22;6790;49.520;8.504;2024-01-30T10:52:42;7.50;99.90
13436;DHT22;6790;49.520;8.504;2024-01-30T10:55:10;7.50;99.90
13436;DHT22;6790;49.520;8.504;2024-01-30T10:57:36;7.60;99.90
13436;DHT22;6790;49.520;8.504;2024-01-30T11:00:08;7.70;99.90
13436;DHT22;6790;49.520;8.504;2024-01-30T11:02:43;7.60;99.90
13436;DHT22;6790;49.520;8.504;2024-01-30T11:05:12;7.70;99.90
13436;DHT22;6790;49.520;8.504;2024-01-30T11:07:39;7.80;99.90
13436;DHT22;6790;49.520;8.504;2024-01-30T11:10:07;8.10;99.90
13436;DHT22;6790;49.520;8.504;2024-01-30T11:12:38;8.20;99.90
13436;DHT22;6790;49.520;8.504;2024-01-30T11:15:16;8.30;99.90
13436;DHT22;6790;49.520;8.504;2024-01-30T11:20:20;8.20;99.90
13436;DHT22;6790;49.520;8.504;2024-01-30T11:22:48;8.20;99.90
13436;DHT22;6790;49.520;8.504;2024-01-30T11:25:17;8.20;99.90
13436;DHT22;6790;49.520;8.504;2024-01-30T11:27:44;8.20;99.90
13436;DHT22;6790;49.520;8.504;2024-01-30T11:30:11;8.30;99.90
13436;DHT22;6790;49.520;8.504;2024-01-30T11:33:15;8.40;99.90
13436;DHT22;6790;49.520;8.504;2024-01-30T11:35:52;8.70;99.90
13436;DHT22;6790;49.520;8.504;2024-01-30T11:38:18;8.80;99.90
13436;DHT22;6790;49.520;8.504;2024-01-30T11:40:44;8.90;99.90
13436;DHT22;6790;49.520;8.504;2024-01-30T11:43:10;8.90;99.90
13436;DHT22;6790;49.520;8.504;2024-01-30T11:45:37;8.90;99.90
13436;DHT22;6790;49.520;8.504;2024-01-30T11:48:04;8.90;99.90
13436;DHT22;6790;49.520;8.504;2024-01-30T11:50:31;8.90;99.90
13436;DHT22;6790;49.520;8.504;2024-01-30T11:53:01;8.90;99.90
13436;DHT22;6790;49.520;8.504;2024-01-30T11:55:28;9.00;99.90
13436;DHT22;6790;49.520;8.504;2024-01-30T11:57:55;9.00;99.90
13436;DHT22;6790;49.520;8.504;2024-01-30T12:00:22;9.10;99.90
13436;DHT22;6790;49.520;8.504;2024-01-30T12:02:52;9.10;99.90
13436;DHT22;6790;49.520;8.504;2024-01-30T12:05:22;9.20;99.90
13436;DHT22;6790;49.520;8.504;2024-01-30T12:07:48;9.30;99.90
13436;DHT22;6790;49.520;8.504;2024-01-30T12:10:14;9.30;99.90
13436;DHT22;6790;49.520;8.504;2024-01-30T12:12:42;9.30;99.90
13436;DHT22;6790;49.520;8.504;2024-01-30T12:15:16;9.40;99.90
13436;DHT22;6790;49.520;8.504;2024-01-30T12:17:42;9.40;99.90
13436;DHT22;6790;49.520;8.504;2024-01-30T12:25:24;9.50;99.90
13436;DHT22;6790;49.520;8.504;2024-01-30T12:27:50;9.50;99.90
13436;DHT22;6790;49.520;8.504;2024-01-30T12:30:17;9.50;99.90
13436;DHT22;6790;49.520;8.504;2024-01-30T12:32:46;9.60;99.90
13436;DHT22;6790;49.520;8.504;2024-01-30T12:35:18;9.60;99.90
13436;DHT22;6790;49.520;8.504;2024-01-30T12:37:45;9.60;99.90
13436;DHT22;6790;49.520;8.504;2024-01-30T12:40:12;9.60;99.90
13436;DHT22;6790;49.520;8.504;2024-01-30T12:42:40;9.70;99.90
13436;DHT22;6790;49.520;8.504;2024-01-30T12:45:08;9.70;99.90
13436;DHT22;6790;49.520;8.504;2024-01-30T12:47:34;9.80;99.90
13436;DHT22;6790;49.520;8.504;2024-01-30T12:50:00;9.80;99.90
13436;DHT22;6790;49.520;8.504;2024-01-30T12:52:26;9.80;99.90
13436;DHT22;6790;49.520;8.504;2024-01-30T12:54:52;9.90;99.90
13436;DHT22;6790;49.520;8.504;2024-01-30T12:57:18;10.00;99.90
13436;DHT22;6790;49.520;8.504;2024-01-30T12:59:44;10.10;99.90
13436;DHT22;6790;49.520;8.504;2024-01-30T13:02:12;10.10;99.90
13436;DHT22;6790;49.520;8.504;2024-01-30T13:04:38;10.20;99.90
13436;DHT22;6790;49.520;8.504;2024-01-30T13:07:04;10.30;99.90
13436;DHT22;6790;49.520;8.504;2024-01-30T13:09:30;10.20;99.90
13436;DHT22;6790;49.520;8.504;2024-01-30T13:11:57;10.30;99.90
13436;DHT22;6790;49.520;8.504;2024-01-30T13:14:24;10.20;99.90
13436;DHT22;6790;49.520;8.504;2024-01-30T13:16:49;10.30;99.90
13436;DHT22;6790;49.520;8.504;2024-01-30T13:19:16;10.40;99.90
13436;DHT22;6790;49.520;8.504;2024-01-30T13:21:42;10.30;99.90
13436;DHT22;6790;49.520;8.504;2024-01-30T13:24:08;10.30;99.90
13436;DHT22;6790;49.520;8.504;2024-01-30T13:26:34;10.30;99.90
13436;DHT22;6790;49.520;8.504;2024-01-30T13:28:59;10.50;99.90
13436;DHT22;6790;49.520;8.504;2024-01-30T13:31:25;10.50;99.90
13436;DHT22;6790;49.520;8.504;2024-01-30T13:33:53;10.40;99.90
13436;DHT22;6790;49.520;8.504;2024-01-30T13:36:19;10.40;99.90
13436;DHT22;6790;49.520;8.504;2024-01-30T13:38:45;10.40;99.90
13436;DHT22;6790;49.520;8.504;2024-01-30T13:41:10;10.50;99.90
13436;DHT22;6790;49.520;8.504;2024-01-30T13:43:36;10.50;99.90
13436;DHT22;6790;49.520;8.504;2024-01-30T13:46:02;10.40;99.90
13436;DHT22;6790;49.520;8.504;2024-01-30T13:48:28;10.50;99.90
13436;DHT22;6790;49.520;8.504;2024-01-30T13:50:55;10.60;99.90
13436;DHT22;6790;49.520;8.504;2024-01-30T13:53:21;10.50;99.90
13436;DHT22;6790;49.520;8.504;2024-01-30T13:55:46;10.60;99.90
13436;DHT22;6790;49.520;8.504;2024-01-30T13:58:12;10.50;99.90
13436;DHT22;6790;49.520;8.504;2024-01-30T14:00:38;10.50;99.90
13436;DHT22;6790;49.520;8.504;2024-01-30T14:03:04;10.60;99.90
13436;DHT22;6790;49.520;8.504;2024-01-30T14:05:30;10.60;99.90
13436;DHT22;6790;49.520;8.504;2024-01-30T14:07:57;10.60;99.90
13436;DHT22;6790;49.520;8.504;2024-01-30T14:10:23;10.60;99.90
13436;DHT22;6790;49.520;8.504;2024-01-30T14:12:49;10.60;99.90
13436;DHT22;6790;49.520;8.504;2024-01-30T14:15:14;10.50;99.90
13436;DHT22;6790;49.520;8.504;2024-01-30T14:17:43;10.50;99.90
13436;DHT22;6790;49.520;8.504;2024-01-30T14:20:09;10.40;99.90
13436;DHT22;6790;49.520;8.504;2024-01-30T14:22:36;10.40;99.90
13436;DHT22;6790;49.520;8.504;2024-01-30T14:25:02;10.30;99.90
13436;DHT22;6790;49.520;8.504;2024-01-30T14:27:31;10.30;99.90
13436;DHT22;6790;49.520;8.504;2024-01-30T14:29:57;10.40;99.90
13436;DHT22;6790;49.520;8.504;2024-01-30T14:32:24;10.40;99.90
13436;DHT22;6790;49.520;8.504;2024-01-30T14:34:51;10.30;99.90
13436;DHT22;6790;49.520;8.504;2024-01-30T14:37:17;10.30;99.90
13436;DHT22;6790;49.520;8.504;2024-01-30T14:39:44;10.40;99.90
13436;DHT22;6790;49.520;8.504;2024-01-30T14:42:09;10.30;99.90
13436;DHT22;6790;49.520;8.504;2024-01-30T14:44:35;10.30;99.90
13436;DHT22;6790;49.520;8.504;2024-01-30T14:47:01;10.30;99.90
13436;DHT22;6790;49.520;8.504;2024-01-30T14:49:27;10.30;99.90
13436;DHT22;6790;49.520;8.504;2024-01-30T14:51:53;10.30;99.90
13436;DHT22;6790;49.520;8.504;2024-01-30T14:54:19;10.20;99.90
13436;DHT22;6790;49.520;8.504;2024-01-30T14:56:44;10.20;99.90
13436;DHT22;6790;49.520;8.504;2024-01-30T14:59:10;10.20;99.90
13436;DHT22;6790;49.520;8.504;2024-01-30T15:01:36;10.20;99.90
13436;DHT22;6790;49.520;8.504;2024-01-30T15:04:02;10.10;99.90
13436;DHT22;6790;49.520;8.504;2024-01-30T15:06:28;10.00;99.90
13436;DHT22;6790;49.520;8.504;2024-01-30T15:08:54;9.90;99.90
13436;DHT22;6790;49.520;8.504;2024-01-30T15:11:20;9.90;99.90
13436;DHT22;6790;49.520;8.504;2024-01-30T15:13:46;9.90;99.90
13436;DHT22;6790;49.520;8.504;2024-01-30T15:16:12;9.80;99.90
13436;DHT22;6790;49.520;8.504;2024-01-30T15:18:38;9.70;99.90
13436;DHT22;6790;49.520;8.504;2024-01-30T15:21:04;9.50;99.90
13436;DHT22;6790;49.520;8.504;2024-01-30T15:23:29;9.40;99.90
13436;DHT22;6790;49.520;8.504;2024-01-30T15:25:55;9.40;99.90
13436;DHT22;6790;49.520;8.504;2024-01-30T15:28:35;9.40;99.90
13436;DHT22;6790;49.520;8.504;2024-01-30T15:31:02;9.40;99.90
13436;DHT22;6790;49.520;8.504;2024-01-30T15:33:28;9.30;99.90
13436;DHT22;6790;49.520;8.504;2024-01-30T15:35:53;9.20;99.90
13436;DHT22;6790;49.520;8.504;2024-01-30T15:38:19;9.20;99.90
13436;DHT22;6790;49.520;8.504;2024-01-30T15:40:46;9.20;99.90
13436;DHT22;6790;49.520;8.504;2024-01-30T15:43:12;9.10;99.90
13436;DHT22;6790;49.520;8.504;2024-01-30T15:45:38;9.00;99.90
13436;DHT22;6790;49.520;8.504;2024-01-30T15:48:04;9.00;99.90
13436;DHT22;6790;49.520;8.504;2024-01-30T15:50:30;8.90;99.90
13436;DHT22;6790;49.520;8.504;2024-01-30T15:52:56;8.80;99.90
13436;DHT22;6790;49.520;8.504;2024-01-30T15:55:22;8.80;99.90
13436;DHT22;6790;49.520;8.504;2024-01-30T15:57:47;8.70;99.90
13436;DHT22;6790;49.520;8.504;2024-01-30T16:00:14;8.80;99.90
13436;DHT22;6790;49.520;8.504;2024-01-30T16:02:40;8.90;99.90
13436;DHT22;6790;49.520;8.504;2024-01-30T16:05:06;8.90;99.90